createdAt,value
2023-04-14T00:00:17.468Z,25.67
2023-04-14T00:02:45.817Z,27.10
2023-04-14T00:05:13.952Z,24.50
2023-04-14T00:07:43.291Z,30.17
2023-04-14T00:10:11.957Z,33.37
2023-04-14T00:12:39.897Z,30.77
2023-04-14T00:15:08.972Z,29.37
2023-04-14T00:17:36.946Z,29.73
2023-04-14T00:20:05.369Z,29.50
2023-04-14T00:22:33.357Z,32.77
2023-04-14T00:25:02.945Z,33.67
2023-04-14T00:27:31.092Z,37.47
2023-04-14T00:29:59.111Z,37.23
2023-04-14T00:32:28.076Z,38.23
2023-04-14T00:34:57.342Z,35.37
2023-04-14T00:37:25.475Z,42.23
2023-04-14T00:39:53.459Z,42.70
2023-04-14T00:42:22.774Z,45.77
2023-04-14T00:44:51.364Z,44.50
2023-04-14T00:47:19.627Z,46.87
2023-04-14T00:49:47.847Z,42.87
2023-04-14T00:52:16.029Z,42.07
2023-04-14T00:54:44.012Z,44.90
2023-04-14T00:57:12.210Z,43.67
2023-04-14T00:59:41.827Z,45.37
2023-04-14T01:02:09.944Z,47.57
2023-04-14T01:04:52.054Z,49.57
2023-04-14T01:07:22.776Z,44.13
2023-04-14T01:09:51.601Z,44.37
2023-04-14T01:12:45.515Z,44.27
2023-04-14T01:15:24.982Z,43.53
2023-04-14T01:18:00.607Z,46.87
2023-04-14T01:20:34.095Z,41.63
2023-04-14T01:23:08.094Z,45.20
2023-04-14T01:26:04.771Z,41.63
2023-04-14T01:28:50.302Z,45.70
2023-04-14T01:31:25.517Z,41.07
2023-04-14T01:33:58.584Z,37.20
2023-04-14T01:36:31.792Z,37.63
2023-04-14T01:39:00.568Z,38.43
2023-04-14T01:41:31.216Z,43.70
2023-04-14T01:44:02.735Z,39.17
2023-04-14T01:46:33.284Z,39.43
2023-04-14T01:49:01.491Z,39.60
2023-04-14T01:51:33.258Z,44.00
2023-04-14T01:54:04.209Z,42.10
2023-04-14T01:56:34.132Z,39.67
2023-04-14T01:59:03.159Z,40.23
2023-04-14T02:01:35.478Z,38.13
2023-04-14T02:04:05.000Z,37.33
2023-04-14T02:06:34.240Z,35.40
2023-04-14T02:09:03.927Z,35.40
2023-04-14T02:11:34.153Z,32.53
2023-04-14T02:14:03.859Z,38.87
2023-04-14T02:16:35.296Z,33.23
2023-04-14T02:19:05.502Z,37.30
2023-04-14T02:21:35.677Z,35.03
2023-04-14T02:24:03.883Z,33.20
2023-04-14T02:26:34.859Z,34.60
2023-04-14T02:29:12.466Z,34.67
2023-04-14T02:31:47.214Z,33.47
2023-04-14T02:34:18.318Z,33.03
2023-04-14T02:36:49.892Z,32.63
2023-04-14T02:39:21.004Z,32.20
2023-04-14T02:41:54.534Z,30.90
2023-04-14T02:44:27.025Z,27.07
2023-04-14T02:47:03.773Z,27.23
2023-04-14T02:49:35.332Z,25.77
2023-04-14T02:52:06.383Z,26.43
2023-04-14T02:54:36.866Z,26.33
2023-04-14T02:57:05.419Z,24.33
2023-04-14T02:59:34.492Z,26.17
2023-04-14T03:02:06.111Z,25.03
2023-04-14T03:04:36.574Z,25.73
2023-04-14T03:07:06.724Z,23.53
2023-04-14T03:09:35.913Z,22.63
2023-04-14T03:12:05.535Z,22.67
2023-04-14T03:14:35.091Z,23.53
2023-04-14T03:17:05.583Z,23.90
2023-04-14T03:19:33.877Z,21.90
2023-04-14T03:22:03.731Z,23.70
2023-04-14T03:24:33.075Z,22.73
2023-04-14T03:27:05.394Z,23.17
2023-04-14T03:29:41.481Z,20.80
2023-04-14T03:35:54.589Z,23.27
2023-04-14T03:38:26.271Z,24.07
2023-04-14T03:40:55.237Z,22.53
2023-04-14T03:43:24.424Z,23.67
2023-04-14T03:45:52.664Z,24.20
2023-04-14T03:48:22.373Z,27.87
2023-04-14T03:50:53.597Z,28.10
2023-04-14T03:53:22.894Z,25.70
2023-04-14T03:55:53.862Z,25.67
2023-04-14T03:58:23.357Z,26.07
2023-04-14T04:00:53.996Z,24.90
2023-04-14T04:03:23.850Z,24.30
2023-04-14T04:05:54.452Z,23.43
2023-04-14T04:08:24.684Z,24.13
2023-04-14T04:10:53.319Z,25.90
2023-04-14T04:13:22.526Z,24.37
2023-04-14T04:15:52.127Z,24.37
2023-04-14T04:18:22.642Z,25.90
2023-04-14T04:20:51.211Z,24.30
2023-04-14T04:23:23.872Z,23.83
2023-04-14T04:25:52.884Z,24.63
2023-04-14T04:28:23.263Z,24.00
2023-04-14T04:30:53.795Z,25.17
2023-04-14T04:33:23.936Z,25.27
2023-04-14T04:35:53.539Z,26.97
2023-04-14T04:38:25.452Z,23.40
2023-04-14T04:40:53.502Z,25.53
2023-04-14T04:43:21.428Z,26.27
2023-04-14T04:46:09.629Z,28.63
2023-04-14T04:48:37.620Z,28.10
2023-04-14T04:51:05.727Z,29.07
2023-04-14T04:53:35.055Z,33.83
2023-04-14T04:56:05.165Z,30.30
2023-04-14T04:58:33.109Z,30.50
2023-04-14T05:01:01.198Z,30.87
2023-04-14T05:03:29.226Z,35.90
2023-04-14T05:05:59.730Z,38.10
2023-04-14T05:08:28.018Z,32.80
2023-04-14T05:10:57.592Z,39.50
2023-04-14T05:13:26.216Z,34.63
2023-04-14T05:16:03.150Z,36.23
2023-04-14T05:18:31.183Z,35.57
2023-04-14T05:21:03.722Z,35.77
2023-04-14T05:23:33.283Z,35.87
2023-04-14T05:26:20.372Z,34.00
2023-04-14T05:28:51.099Z,35.40
2023-04-14T05:31:20.174Z,34.27
2023-04-14T05:33:48.205Z,32.33
2023-04-14T05:36:16.237Z,36.07
2023-04-14T05:38:44.549Z,31.03
2023-04-14T05:41:16.522Z,31.87
2023-04-14T05:43:44.487Z,30.57
2023-04-14T05:46:12.523Z,31.97
2023-04-14T05:48:40.744Z,30.40
2023-04-14T05:51:08.682Z,30.37
2023-04-14T05:53:36.622Z,30.60
2023-04-14T05:56:04.825Z,33.43
2023-04-14T05:58:34.162Z,31.67
2023-04-14T06:01:03.935Z,29.63
2023-04-14T06:03:32.097Z,33.37
2023-04-14T06:06:00.263Z,35.97
2023-04-14T06:08:30.094Z,31.60
2023-04-14T06:10:58.051Z,33.43
2023-04-14T06:13:26.014Z,33.20
2023-04-14T06:15:56.145Z,33.30
2023-04-14T06:18:24.264Z,33.60
2023-04-14T06:20:52.505Z,33.63
2023-04-14T06:23:21.552Z,34.87
2023-04-14T06:25:49.604Z,34.30
2023-04-14T06:28:18.699Z,35.13
2023-04-14T06:30:46.961Z,33.83
2023-04-14T06:33:16.307Z,32.60
2023-04-14T06:35:45.030Z,32.20
2023-04-14T06:38:12.966Z,29.63
2023-04-14T06:40:40.913Z,32.40
2023-04-14T06:43:10.838Z,30.60
2023-04-14T06:45:39.044Z,30.77
2023-04-14T06:48:08.010Z,27.00
2023-04-14T06:50:37.495Z,29.10
2023-04-14T06:53:09.319Z,28.40
2023-04-14T06:55:37.307Z,26.70
2023-04-14T06:58:05.382Z,28.67
2023-04-14T07:00:33.376Z,28.93
2023-04-14T07:03:01.673Z,27.00
2023-04-14T07:05:29.907Z,23.93
2023-04-14T07:08:02.098Z,23.43
2023-04-14T07:10:30.434Z,25.20
2023-04-14T07:12:58.346Z,24.13
2023-04-14T07:15:26.616Z,26.23
2023-04-14T07:17:54.649Z,23.40
2023-04-14T07:20:26.039Z,21.90
2023-04-14T07:22:54.192Z,21.23
2023-04-14T07:25:24.374Z,23.20
2023-04-14T07:28:02.523Z,25.77
2023-04-14T07:30:31.543Z,22.20
2023-04-14T07:32:59.564Z,22.10
2023-04-14T07:35:27.560Z,24.57
2023-04-14T07:37:56.067Z,21.73
2023-04-14T07:40:25.653Z,17.80
2023-04-14T07:42:53.650Z,16.87
2023-04-14T07:45:22.599Z,16.10
2023-04-14T07:47:52.192Z,21.27
2023-04-14T07:50:20.711Z,15.60
2023-04-14T07:52:48.655Z,15.77
2023-04-14T07:55:16.803Z,14.50
2023-04-14T07:57:46.355Z,14.13
2023-04-14T08:00:17.541Z,13.77
2023-04-14T08:02:46.018Z,13.37
2023-04-14T08:05:14.095Z,13.97
2023-04-14T08:07:42.218Z,12.67
2023-04-14T08:10:10.416Z,12.77
2023-04-14T08:12:38.374Z,13.73
2023-04-14T08:15:09.650Z,16.07
2023-04-14T08:17:37.679Z,13.73
2023-04-14T08:20:06.794Z,13.97
2023-04-14T08:22:34.859Z,14.00
2023-04-14T08:25:02.833Z,13.77
2023-04-14T08:27:31.822Z,12.80
2023-04-14T08:29:59.979Z,12.13
2023-04-14T08:32:29.342Z,13.93
2023-04-14T08:35:39.286Z,13.80
2023-04-14T08:37:45.293Z,12.47
2023-04-14T08:40:16.461Z,14.83
2023-04-14T08:42:45.873Z,12.83
2023-04-14T08:45:19.153Z,12.10
2023-04-14T08:47:49.855Z,15.43
2023-04-14T08:50:22.044Z,14.03
2023-04-14T08:52:55.310Z,13.60
2023-04-14T08:55:24.636Z,11.70
2023-04-14T08:57:52.852Z,12.17
2023-04-14T09:00:23.108Z,12.30
2023-04-14T09:02:53.138Z,12.50
2023-04-14T09:05:21.575Z,11.40
2023-04-14T09:07:49.622Z,12.23
2023-04-14T09:10:18.674Z,14.20
2023-04-14T09:12:49.269Z,10.53
2023-04-14T09:15:17.921Z,12.77
2023-04-14T09:17:46.419Z,9.83
2023-04-14T09:20:35.654Z,10.30
2023-04-14T09:23:04.881Z,10.37
2023-04-14T09:25:33.690Z,10.80
2023-04-14T09:28:02.090Z,8.70
2023-04-14T09:30:33.271Z,9.20
2023-04-14T09:33:05.144Z,8.20
2023-04-14T09:35:46.540Z,9.90
2023-04-14T09:38:31.104Z,8.27
2023-04-14T09:40:59.134Z,6.13
2023-04-14T09:43:29.110Z,7.47
2023-04-14T09:45:58.248Z,7.07
2023-04-14T09:48:29.416Z,6.57
2023-04-14T09:51:00.623Z,7.37
2023-04-14T09:53:33.910Z,5.50
2023-04-14T09:56:06.597Z,3.70
2023-04-14T09:58:36.676Z,4.10
2023-04-14T10:01:05.745Z,6.00
2023-04-14T10:03:39.278Z,5.27
2023-04-14T10:06:17.078Z,4.83
2023-04-14T10:08:46.812Z,3.50
2023-04-14T10:11:17.050Z,3.50
2023-04-14T10:13:45.634Z,3.10
2023-04-14T10:16:13.788Z,5.90
2023-04-14T10:18:41.887Z,3.20
2023-04-14T10:21:12.534Z,4.70
2023-04-14T10:23:42.480Z,3.00
2023-04-14T10:26:11.920Z,3.47
2023-04-14T10:28:43.340Z,3.33
2023-04-14T10:31:16.075Z,5.17
2023-04-14T10:33:44.355Z,7.37
2023-04-14T10:36:23.485Z,3.23
2023-04-14T10:38:53.421Z,2.90
2023-04-14T10:41:21.899Z,4.10
2023-04-14T10:43:49.918Z,6.00
2023-04-14T10:46:18.776Z,3.33
2023-04-14T10:48:51.532Z,5.07
2023-04-14T10:51:21.836Z,2.80
2023-04-14T10:53:54.265Z,2.70
2023-04-14T10:56:23.964Z,6.70
2023-04-14T10:58:56.172Z,2.63
2023-04-14T11:01:30.984Z,4.57
2023-04-14T11:04:12.352Z,6.83
2023-04-14T11:06:55.977Z,3.67
2023-04-14T11:09:32.400Z,5.77
2023-04-14T11:12:05.351Z,4.00
2023-04-14T11:14:35.951Z,3.13
2023-04-14T11:17:05.380Z,4.10
2023-04-14T11:19:36.882Z,5.30
2023-04-14T11:22:08.851Z,3.20
2023-04-14T11:24:37.263Z,6.93
2023-04-14T11:27:05.556Z,2.73
2023-04-14T11:29:34.327Z,4.10
2023-04-14T11:32:06.930Z,2.80
2023-04-14T11:34:35.430Z,4.20
2023-04-14T11:37:05.842Z,3.10
2023-04-14T11:39:35.545Z,4.73
2023-04-14T11:42:05.163Z,3.37
2023-04-14T11:44:33.815Z,4.63
2023-04-14T11:47:04.518Z,2.80
2023-04-14T11:49:39.142Z,4.07
2023-04-14T11:52:09.744Z,2.87
2023-04-14T11:54:38.947Z,3.40
2023-04-14T11:57:11.350Z,3.97
2023-04-14T11:59:43.588Z,4.23
2023-04-14T12:02:18.186Z,2.60
2023-04-14T12:04:51.774Z,3.23
2023-04-14T12:07:23.543Z,3.13
2023-04-14T12:09:52.418Z,4.23
2023-04-14T12:12:21.081Z,3.27
2023-04-14T12:14:50.049Z,3.30
2023-04-14T12:17:20.272Z,3.37
2023-04-14T12:19:48.847Z,4.03
2023-04-14T12:22:27.024Z,3.07
2023-04-14T12:24:56.414Z,3.40
2023-04-14T12:27:26.513Z,3.80
2023-04-14T12:29:54.551Z,3.07
2023-04-14T12:32:22.867Z,3.20
2023-04-14T12:34:58.470Z,4.80
2023-04-14T12:37:28.909Z,4.10
2023-04-14T12:39:59.763Z,2.70
2023-04-14T12:42:29.004Z,4.07
2023-04-14T12:45:00.328Z,4.53
2023-04-14T12:47:29.801Z,4.10
2023-04-14T12:49:58.526Z,4.90
2023-04-14T12:52:41.999Z,6.67
2023-04-14T12:55:21.062Z,4.33
2023-04-14T12:57:49.102Z,6.20
2023-04-14T13:00:17.691Z,4.87
2023-04-14T13:02:48.892Z,5.50
2023-04-14T13:05:17.201Z,4.20
2023-04-14T13:07:47.350Z,4.40
2023-04-14T13:10:15.840Z,4.07
2023-04-14T13:12:46.608Z,3.97
2023-04-14T13:16:11.774Z,4.77
2023-04-14T13:18:02.584Z,5.73
2023-04-14T13:20:31.484Z,5.63
2023-04-14T13:23:01.304Z,4.40
2023-04-14T13:25:29.344Z,5.30
2023-04-14T13:27:57.250Z,4.43
2023-04-14T13:30:25.522Z,7.43
2023-04-14T13:32:53.707Z,6.77
2023-04-14T13:35:21.887Z,3.77
2023-04-14T13:37:49.831Z,3.93
2023-04-14T13:40:19.457Z,4.73
2023-04-14T13:42:47.424Z,5.57
2023-04-14T13:45:15.835Z,4.23
2023-04-14T13:47:46.558Z,6.80
2023-04-14T13:50:14.650Z,4.47
2023-04-14T13:52:42.662Z,5.53
2023-04-14T13:55:10.944Z,5.30
2023-04-14T13:57:40.566Z,4.10
2023-04-14T14:00:10.355Z,4.37
2023-04-14T14:02:39.512Z,5.73
2023-04-14T14:05:10.283Z,6.90
2023-04-14T14:07:39.160Z,5.93
2023-04-14T14:10:10.579Z,4.23
2023-04-14T14:12:40.274Z,4.90
2023-04-14T14:15:09.561Z,4.87
2023-04-14T14:17:38.015Z,4.77
2023-04-14T14:20:07.042Z,3.80
2023-04-14T14:22:35.310Z,4.10
2023-04-14T14:25:17.577Z,4.03
2023-04-14T14:27:48.434Z,4.27
2023-04-14T14:30:16.763Z,5.70
2023-04-14T14:32:44.800Z,4.03
2023-04-14T14:35:18.687Z,4.37
2023-04-14T14:37:47.358Z,3.97
2023-04-14T14:40:15.487Z,4.23
2023-04-14T14:42:44.347Z,4.57
2023-04-14T14:45:16.668Z,4.03
2023-04-14T14:47:53.902Z,4.03
2023-04-14T14:50:22.027Z,3.80
2023-04-14T14:52:49.881Z,5.30
2023-04-14T14:55:17.984Z,7.13
2023-04-14T14:57:46.000Z,5.10
2023-04-14T15:00:16.038Z,6.50
2023-04-14T15:02:46.630Z,3.43
2023-04-14T15:05:14.789Z,4.87
2023-04-14T15:07:42.790Z,3.93
2023-04-14T15:10:11.028Z,3.90
2023-04-14T15:12:39.008Z,5.33
2023-04-14T15:15:08.829Z,6.70
2023-04-14T15:17:38.235Z,7.13
2023-04-14T15:20:07.338Z,4.60
2023-04-14T15:22:36.436Z,5.10
2023-04-14T15:25:09.109Z,4.53
2023-04-14T15:27:38.341Z,4.60
2023-04-14T15:30:07.551Z,5.33
2023-04-14T15:32:37.037Z,4.90
2023-04-14T15:35:05.992Z,4.03
2023-04-14T15:37:36.678Z,4.60
2023-04-14T15:40:04.964Z,3.87
2023-04-14T15:42:33.254Z,6.03
2023-04-14T15:45:01.269Z,5.93
2023-04-14T15:47:29.218Z,3.77
2023-04-14T15:50:08.922Z,8.50
2023-04-14T15:52:38.924Z,5.37
2023-04-14T15:55:08.587Z,9.63
2023-04-14T15:57:37.114Z,7.53
2023-04-14T16:00:08.311Z,7.70
2023-04-14T16:02:36.901Z,5.87
2023-04-14T16:05:07.378Z,6.03
2023-04-14T16:07:35.386Z,5.63
2023-04-14T16:10:04.776Z,4.73
2023-04-14T16:12:35.060Z,5.27
2023-04-14T16:15:08.057Z,7.40
2023-04-14T16:17:36.387Z,6.23
2023-04-14T16:20:06.784Z,8.20
2023-04-14T16:22:37.591Z,4.60
2023-04-14T16:25:06.940Z,5.60
2023-04-14T16:27:34.974Z,5.50
2023-04-14T16:30:05.641Z,5.30
2023-04-14T16:32:33.630Z,6.07
2023-04-14T16:35:01.874Z,5.37
2023-04-14T16:37:31.316Z,6.20
2023-04-14T16:39:59.494Z,7.40
2023-04-14T16:42:27.702Z,6.33
2023-04-14T16:44:56.485Z,6.13
2023-04-14T16:47:25.736Z,6.03
2023-04-14T16:49:53.994Z,6.10
2023-04-14T16:52:22.050Z,5.87
2023-04-14T16:54:55.786Z,6.67
2023-04-14T16:57:23.828Z,6.03
2023-04-14T16:59:54.434Z,6.47
2023-04-14T17:02:24.965Z,5.77
2023-04-14T17:04:53.441Z,5.53
2023-04-14T17:07:21.620Z,6.93
2023-04-14T17:09:50.971Z,6.07
2023-04-14T17:12:19.199Z,6.80
2023-04-14T17:14:47.178Z,7.10
2023-04-14T17:17:15.099Z,6.27
2023-04-14T17:19:43.261Z,6.67
2023-04-14T17:22:12.062Z,6.70
2023-04-14T17:24:42.344Z,6.50
2023-04-14T17:27:11.694Z,7.00
2023-04-14T17:29:42.094Z,7.80
2023-04-14T17:32:13.701Z,7.30
2023-04-14T17:34:43.615Z,7.70
2023-04-14T17:37:11.693Z,7.50
2023-04-14T17:39:39.989Z,8.10
2023-04-14T17:42:08.136Z,8.80
2023-04-14T17:44:42.931Z,7.47
2023-04-14T17:47:15.161Z,9.53
2023-04-14T17:49:44.872Z,7.27
2023-04-14T17:52:15.278Z,7.03
2023-04-14T17:54:46.887Z,7.23
2023-04-14T17:57:18.637Z,8.63
2023-04-14T17:59:58.640Z,8.07
2023-04-14T18:02:32.829Z,9.97
2023-04-14T18:05:01.191Z,8.37
2023-04-14T18:07:32.188Z,8.63
2023-04-14T18:10:04.922Z,8.97
2023-04-14T18:12:36.204Z,8.50
2023-04-14T18:15:11.973Z,7.90
2023-04-14T18:17:41.856Z,8.73
2023-04-14T18:20:15.768Z,8.37
2023-04-14T18:22:49.224Z,8.97
2023-04-14T18:25:21.803Z,8.87
2023-04-14T18:30:28.690Z,9.50
2023-04-14T18:32:56.944Z,9.17
2023-04-14T18:35:30.428Z,8.87
2023-04-14T18:38:03.204Z,9.27
2023-04-14T18:40:41.590Z,8.83
2023-04-14T18:43:26.476Z,8.83
2023-04-14T18:46:05.434Z,8.70
2023-04-14T18:48:46.256Z,10.23
2023-04-14T18:51:20.328Z,9.40
2023-04-14T18:53:53.457Z,9.77
2023-04-14T18:56:21.859Z,9.37
2023-04-14T18:58:53.371Z,9.27
2023-04-14T19:01:23.035Z,8.50
2023-04-14T19:03:55.078Z,8.93
2023-04-14T19:06:26.462Z,6.10
2023-04-14T19:08:57.580Z,4.57
2023-04-14T19:11:28.401Z,3.80
2023-04-14T19:13:59.640Z,2.70
2023-04-14T19:16:39.461Z,2.80
2023-04-14T19:19:10.442Z,3.47
2023-04-14T19:21:45.411Z,3.47
2023-04-14T19:24:24.737Z,3.83
2023-04-14T19:27:05.263Z,4.80
2023-04-14T19:29:43.901Z,4.60
2023-04-14T19:32:15.714Z,6.30
2023-04-14T19:34:46.598Z,4.93
2023-04-14T19:37:33.904Z,5.27
2023-04-14T19:40:06.285Z,5.93
2023-04-14T19:42:37.235Z,5.60
2023-04-14T19:45:12.664Z,4.83
2023-04-14T19:47:51.221Z,6.60
2023-04-14T19:50:24.502Z,3.93
2023-04-14T19:52:56.495Z,3.60
2023-04-14T19:55:31.379Z,3.63
2023-04-14T19:58:01.869Z,3.60
2023-04-14T20:00:45.628Z,4.13
2023-04-14T20:03:20.328Z,4.63
2023-04-14T20:05:59.648Z,4.40
2023-04-14T20:08:32.070Z,4.40
2023-04-14T20:11:05.709Z,4.00
2023-04-14T20:13:35.595Z,4.90
2023-04-14T20:16:15.341Z,5.63
2023-04-14T20:19:08.491Z,3.90
2023-04-14T20:21:40.927Z,4.20
2023-04-14T20:24:09.267Z,4.67
2023-04-14T20:26:44.389Z,4.10
2023-04-14T20:29:14.702Z,4.90
2023-04-14T20:31:48.351Z,4.10
2023-04-14T20:34:20.850Z,4.43
2023-04-14T20:36:55.734Z,3.93
2023-04-14T20:39:28.091Z,4.93
2023-04-14T20:42:05.448Z,4.67
2023-04-14T20:44:33.619Z,3.90
2023-04-14T20:47:01.770Z,2.97
2023-04-14T20:49:36.871Z,3.53
2023-04-14T20:52:07.184Z,3.17
2023-04-14T20:54:35.495Z,3.13
2023-04-14T20:57:05.880Z,3.30
2023-04-14T20:59:34.195Z,3.67
2023-04-14T21:02:07.714Z,4.13
2023-04-14T21:04:39.740Z,3.30
2023-04-14T21:07:10.616Z,3.40
2023-04-14T21:09:38.638Z,3.77
2023-04-14T21:12:14.585Z,4.33
2023-04-14T21:15:27.106Z,4.00
2023-04-14T21:17:34.177Z,3.80
2023-04-14T21:20:04.644Z,3.30
2023-04-14T21:22:34.889Z,3.40
2023-04-14T21:25:02.881Z,3.57
2023-04-14T21:27:31.237Z,3.40
2023-04-14T21:30:00.770Z,4.13
2023-04-14T21:32:29.919Z,5.40
2023-04-14T21:34:59.029Z,3.40
2023-04-14T21:37:28.362Z,3.63
2023-04-14T21:39:58.698Z,3.60
2023-04-14T21:42:27.557Z,4.87
2023-04-14T21:44:55.605Z,3.60
2023-04-14T21:47:25.064Z,3.40
2023-04-14T21:49:53.060Z,4.87
2023-04-14T21:52:21.605Z,4.20
2023-04-14T21:54:55.248Z,3.87
2023-04-14T21:57:48.286Z,4.50
2023-04-14T22:00:15.477Z,3.10
2023-04-14T22:02:44.289Z,4.80
2023-04-14T22:05:12.455Z,3.93
2023-04-14T22:07:41.092Z,4.27
2023-04-14T22:10:11.954Z,4.00
2023-04-14T22:12:42.195Z,3.80
2023-04-14T22:15:12.469Z,3.90
2023-04-14T22:17:41.151Z,4.47
2023-04-14T22:20:10.689Z,4.83
2023-04-14T22:22:38.666Z,4.47
2023-04-14T22:25:07.651Z,3.93
2023-04-14T22:27:37.205Z,3.57
2023-04-14T22:30:08.446Z,4.53
2023-04-14T22:32:36.428Z,3.70
2023-04-14T22:35:07.425Z,4.23
2023-04-14T22:37:35.398Z,3.87
2023-04-14T22:40:03.395Z,4.60
2023-04-14T22:42:31.628Z,4.53
2023-04-14T22:45:01.266Z,4.13
2023-04-14T22:47:29.468Z,7.77
2023-04-14T22:49:57.443Z,5.17
2023-04-14T22:52:27.387Z,4.20
2023-04-14T22:54:55.370Z,6.63
2023-04-14T22:57:26.519Z,4.67
2023-04-14T22:59:54.634Z,3.73
2023-04-14T23:02:24.026Z,6.00
2023-04-14T23:04:52.195Z,4.10
2023-04-14T23:07:20.187Z,3.83
2023-04-14T23:09:48.509Z,4.40
2023-04-14T23:12:17.191Z,4.97
2023-04-14T23:14:45.354Z,5.37
2023-04-14T23:17:13.345Z,4.10
2023-04-14T23:19:42.692Z,4.80
2023-04-14T23:22:10.807Z,5.63
2023-04-14T23:24:38.765Z,4.90
2023-04-14T23:27:06.766Z,4.00
2023-04-14T23:29:34.751Z,4.60
2023-04-14T23:32:03.039Z,3.93
2023-04-14T23:34:31.334Z,4.37
2023-04-14T23:37:00.747Z,3.90
2023-04-14T23:39:28.748Z,3.73
2023-04-14T23:41:56.681Z,4.00
2023-04-14T23:44:27.023Z,3.63
2023-04-14T23:46:55.205Z,4.03
2023-04-14T23:49:34.262Z,4.00
2023-04-14T23:52:05.235Z,3.83
2023-04-14T23:54:33.553Z,3.70
2023-04-14T23:57:01.680Z,4.50
2023-04-14T23:59:29.966Z,4.77
